Time;durP1;ratioP1;P1;durP2;ratioP2;P2;SDS_P1;SDS_P2;PMS_P1;PMS_P2;Temp;Humidity;BMP_temperature;BMP_pressure;BME280_temperature;BME280_humidity;BME280_pressure;Samples;Min_cycle;Max_cycle;Signal;HPM_P1;HPM_P2
2022/01/22 00:02:07;;;;;;;62.92;29.02;;;;;;;-0.97;100.00;101948.16;4899115;29;20052;-72
2022/01/22 00:04:36;;;;;;;66.03;28.45;;;;;;;-1.12;100.00;101946.13;4899112;29;20583;-72
2022/01/22 00:07:06;;;;;;;63.28;28.77;;;;;;;-1.24;100.00;101942.09;4899115;29;20064;-73
2022/01/22 00:09:53;;;;;;;68.07;29.35;;;;;;;-1.17;100.00;101958.38;4898919;29;20053;-72
2022/01/22 00:13:08;;;;;;;70.03;29.90;;;;;;;-1.02;100.00;101961.25;4898810;29;20455;-73
2022/01/22 00:15:13;;;;;;;71.90;29.60;;;;;;;-1.12;100.00;101967.63;4898363;29;20067;-72
2022/01/22 00:17:42;;;;;;;64.95;28.67;;;;;;;-1.17;100.00;101963.75;4899120;29;20049;-72
2022/01/22 00:20:12;;;;;;;59.70;26.50;;;;;;;-1.27;100.00;101963.94;4899614;29;20057;-72
2022/01/22 00:22:40;;;;;;;55.72;27.08;;;;;;;-1.37;100.00;101964.09;4899158;29;20065;-72
2022/01/22 00:25:09;;;;;;;59.92;26.00;;;;;;;-1.21;100.00;101965.94;4899177;29;20063;-72
2022/01/22 00:27:41;;;;;;;61.25;27.42;;;;;;;-1.33;100.00;101969.97;4897841;29;20047;-72
2022/01/22 00:30:12;;;;;;;54.38;26.98;;;;;;;-1.35;100.00;101959.38;4892935;29;20048;-72
2022/01/22 00:32:40;;;;;;;58.78;26.85;;;;;;;-1.40;100.00;101969.78;4899814;29;20064;-72
2022/01/22 00:35:10;;;;;;;59.85;27.13;;;;;;;-1.58;100.00;101967.22;4898720;29;20048;-72
2022/01/22 00:37:40;;;;;;;60.83;27.08;;;;;;;-1.69;100.00;101973.75;4898911;29;20048;-72
2022/01/22 00:40:10;;;;;;;64.60;27.70;;;;;;;-1.78;100.00;101972.88;4898911;29;20056;-72
2022/01/22 00:42:42;;;;;;;54.03;25.42;;;;;;;-1.81;100.00;101978.59;4898236;29;20040;-72
2022/01/22 00:45:11;;;;;;;63.75;27.88;;;;;;;-1.79;100.00;101973.88;4913371;29;20400;-72
2022/01/22 00:47:39;;;;;;;59.78;27.48;;;;;;;-1.77;100.00;101958.44;4913278;29;20040;-72
2022/01/22 00:50:13;;;;;;;58.05;28.05;;;;;;;-1.75;100.00;101959.16;4898650;29;20061;-72
2022/01/22 00:52:43;;;;;;;66.07;27.85;;;;;;;-1.81;100.00;101947.19;4912817;29;20057;-72
2022/01/22 00:55:15;;;;;;;65.45;28.40;;;;;;;-1.88;100.00;101946.19;4898397;29;20052;-72
2022/01/22 00:57:44;;;;;;;67.53;28.15;;;;;;;-1.87;100.00;101947.84;4899070;29;20060;-72
2022/01/22 01:00:15;;;;;;;67.72;29.48;;;;;;;-1.90;100.00;101951.69;4897010;29;20440;-72
2022/01/22 01:02:44;;;;;;;65.40;28.10;;;;;;;-1.87;100.00;101955.09;4898422;29;20055;-72
2022/01/22 01:05:13;;;;;;;64.55;28.25;;;;;;;-1.91;100.00;101963.44;4898326;29;20503;-72
2022/01/22 01:07:42;;;;;;;63.25;28.63;;;;;;;-2.01;100.00;101962.72;4912855;29;20055;-71
2022/01/22 01:10:14;;;;;;;65.13;28.52;;;;;;;-2.06;100.00;101965.06;4897889;29;20048;-72
2022/01/22 01:12:43;;;;;;;58.35;28.63;;;;;;;-2.11;100.00;101962.03;4897028;29;20053;-72
2022/01/22 01:15:22;;;;;;;66.00;27.25;;;;;;;-1.92;100.00;101952.88;4911827;29;20134;-72
2022/01/22 01:34:30;;;;;;;79.68;32.85;;;;;;;-1.78;100.00;101983.63;4896367;29;20059;-72
2022/01/22 01:36:57;;;;;;;70.00;31.05;;;;;;;-1.85;100.00;101982.59;4897029;29;20068;-72
2022/01/22 01:39:30;;;;;;;79.20;33.38;;;;;;;-1.87;100.00;101980.06;4893138;29;20061;-72
2022/01/22 01:42:06;;;;;;;85.95;32.28;;;;;;;-1.81;100.00;101976.72;4911642;29;20049;-72
2022/01/22 01:44:36;;;;;;;75.00;33.65;;;;;;;-1.85;100.00;101977.22;4897940;29;20052;-72
2022/01/22 01:47:17;;;;;;;81.43;33.75;;;;;;;-1.86;100.00;101981.72;4893283;29;20064;-72
2022/01/22 01:49:46;;;;;;;70.20;29.20;;;;;;;-1.78;100.00;101983.63;4891389;29;20436;-72
2022/01/22 01:52:37;;;;;;;73.13;31.80;;;;;;;-1.78;100.00;101983.63;4896110;29;20049;-72
2022/01/22 01:55:14;;;;;;;71.80;29.65;;;;;;;-1.94;100.00;101971.84;4896756;29;20059;-72
2022/01/22 01:57:43;;;;;;;68.85;31.50;;;;;;;-2.04;100.00;101980.00;4896273;29;20060;-72
2022/01/22 02:00:16;;;;;;;67.10;28.65;;;;;;;-2.11;100.00;101973.59;4895947;29;20064;-72
2022/01/22 02:02:46;;;;;;;66.93;29.15;;;;;;;-2.14;100.00;101973.06;4897426;29;20048;-72
2022/01/22 02:05:21;;;;;;;63.15;30.98;;;;;;;-2.14;100.00;101970.41;4911829;29;20071;-71
2022/01/22 02:07:54;;;;;;;76.97;32.55;;;;;;;-2.14;100.00;101968.56;4891271;29;20052;-72
2022/01/22 02:10:30;;;;;;;71.03;31.13;;;;;;;-2.16;100.00;101968.72;4891613;29;20063;-72
2022/01/22 02:24:20;;;;;;;65.88;27.20;;;;;;;-2.19;100.00;101958.28;4911642;29;20487;-72
2022/01/22 02:26:50;;;;;;;70.93;30.70;;;;;;;-2.21;100.00;101951.41;4911475;29;20551;-72
2022/01/22 02:29:34;;;;;;;69.80;29.13;;;;;;;-2.23;100.00;101948.06;4893484;29;20408;-71
2022/01/22 02:35:26;;;;;;;70.93;29.77;;;;;;;-2.04;100.00;101938.91;4894976;29;20048;-72
2022/01/22 02:37:51;;;;;;;60.53;28.00;;;;;;;-2.14;100.00;101932.84;4894407;29;20053;-72
2022/01/22 02:42:53;;;;;;;63.33;28.65;;;;;;;-2.27;100.00;101927.91;4895272;29;20061;-72
2022/01/22 02:45:23;;;;;;;61.00;28.30;;;;;;;-2.19;100.00;101917.25;4894181;29;20052;-71
2022/01/22 02:47:51;;;;;;;63.78;28.83;;;;;;;-2.22;100.00;101917.53;4896458;29;20061;-72
2022/01/22 02:50:20;;;;;;;64.82;28.73;;;;;;;-2.33;100.00;101907.97;4895462;29;20055;-72
2022/01/22 02:52:48;;;;;;;73.53;27.77;;;;;;;-2.38;100.00;101916.50;4897170;29;20071;-72
2022/01/22 02:55:17;;;;;;;62.58;27.65;;;;;;;-2.47;100.00;101915.63;4895195;29;20076;-72
2022/01/22 02:57:47;;;;;;;63.90;28.08;;;;;;;-2.54;100.00;101909.19;4895297;29;20108;-72
2022/01/22 03:00:18;;;;;;;63.78;28.58;;;;;;;-2.51;100.00;101911.56;4911041;29;20416;-72
2022/01/22 03:02:48;;;;;;;68.72;28.55;;;;;;;-2.43;100.00;101922.31;4911324;29;20484;-72
2022/01/22 03:05:19;;;;;;;66.82;28.48;;;;;;;-2.50;100.00;101923.97;4894258;29;20061;-72
2022/01/22 03:07:53;;;;;;;66.63;26.75;;;;;;;-2.59;100.00;101917.72;4914155;29;20075;-72
2022/01/22 03:10:24;;;;;;;;;;;;;;;-2.67;100.00;101920.34;4899143;29;20053;-72
2022/01/22 03:13:39;;;;;;;55.60;24.02;;;;;;;-2.72;100.00;101914.63;4900585;29;19924;-72
2022/01/22 03:18:32;;;;;;;61.40;25.98;;;;;;;-2.62;100.00;101906.47;4914592;29;20504;-71
2022/01/22 03:29:11;;;;;;;49.92;24.58;;;;;;;-2.59;100.00;101916.88;4900485;29;20048;-72
2022/01/22 03:31:41;;;;;;;54.10;25.40;;;;;;;-2.46;100.00;101909.25;4898779;29;20060;-72
2022/01/22 03:34:10;;;;;;;60.90;25.75;;;;;;;-2.36;100.00;101901.06;4899460;29;20064;-72
2022/01/22 03:36:39;;;;;;;57.40;23.73;;;;;;;-2.48;100.00;101905.91;4899973;29;20138;-72
2022/01/22 03:39:09;;;;;;;48.85;24.00;;;;;;;-2.46;100.00;101901.19;4913847;29;20056;-72
2022/01/22 03:41:39;;;;;;;56.85;25.58;;;;;;;-2.54;100.00;101903.00;4883269;29;20415;-72
2022/01/22 03:44:08;;;;;;;57.85;24.42;;;;;;;-2.58;100.00;101903.31;4895735;29;20370;-72
2022/01/22 03:46:38;;;;;;;56.60;24.55;;;;;;;-2.55;100.00;101895.97;4894771;29;20052;-72
2022/01/22 03:49:06;;;;;;;55.35;23.17;;;;;;;-2.57;100.00;101896.13;4914453;29;20053;-71
2022/01/22 03:51:34;;;;;;;59.35;24.27;;;;;;;-2.57;100.00;101898.78;4899716;29;20053;-72
2022/01/22 03:54:03;;;;;;;53.42;23.73;;;;;;;-2.48;100.00;101895.19;4894893;29;20049;-72
2022/01/22 03:56:31;;;;;;;52.45;21.58;;;;;;;-2.50;100.00;101883.75;4892236;29;20049;-72
2022/01/22 03:59:16;;;;;;;51.42;22.52;;;;;;;-2.55;100.00;101880.69;4913851;29;20412;-72
2022/01/22 04:04:36;;;;;;;57.35;25.95;;;;;;;-2.53;100.00;101873.38;4914338;29;20534;-72
2022/01/22 04:09:55;;;;;;;52.58;23.52;;;;;;;-2.41;100.00;101865.84;4899072;29;20045;-72
2022/01/22 04:12:35;;;;;;;57.80;24.50;;;;;;;-2.26;100.00;101875.97;4899020;29;20052;-72
2022/01/22 04:15:05;;;;;;;58.97;25.08;;;;;;;-2.35;100.00;101873.25;4898084;29;20063;-72
2022/01/22 04:25:38;;;;;;;54.78;24.23;;;;;;;-2.51;100.00;101879.41;4899213;29;20539;-72
2022/01/22 04:28:07;;;;;;;62.22;24.75;;;;;;;-2.80;100.00;101880.56;4899061;29;20375;-71
2022/01/22 04:30:35;;;;;;;52.53;23.08;;;;;;;-2.92;100.00;101880.03;4897970;29;20052;-71
2022/01/22 04:33:04;;;;;;;55.28;24.17;;;;;;;-2.84;100.00;101872.03;4899090;29;20053;-72
2022/01/22 04:35:32;;;;;;;52.55;23.95;;;;;;;-2.87;100.00;101874.19;4898905;29;20411;-72
2022/01/22 04:38:00;;;;;;;56.65;24.50;;;;;;;-2.71;100.00;101863.56;4898447;29;20052;-72
2022/01/22 04:40:31;;;;;;;49.03;22.52;;;;;;;-2.98;100.00;101865.41;4898728;29;20048;-72
2022/01/22 04:43:00;;;;;;;55.22;24.75;;;;;;;-3.02;100.00;101856.03;4898751;29;20522;-72
2022/01/22 04:48:43;;;;;;;57.35;23.85;;;;;;;-2.89;100.00;101844.03;4896314;29;20061;-72
2022/01/22 04:56:53;;;;;;;49.88;23.40;;;;;;;-2.84;100.00;101839.88;4912880;29;20056;-71
2022/01/22 04:59:21;;;;;;;64.38;27.60;;;;;;;-2.95;100.00;101820.56;4897237;29;20055;-72
2022/01/22 05:01:50;;;;;;;63.22;26.17;;;;;;;-2.92;100.00;101825.59;4896811;29;20048;-72
2022/01/22 05:04:25;;;;;;;62.17;26.38;;;;;;;-2.81;100.00;101814.59;4911332;29;20060;-72
2022/01/22 05:07:12;;;;;;;55.80;25.60;;;;;;;-2.79;100.00;101817.94;4898179;29;20051;-72
2022/01/22 05:10:05;;;;;;;67.03;25.65;;;;;;;-2.88;100.00;101814.38;4886503;29;20492;-72
2022/01/22 05:12:36;;;;;;;65.68;28.13;;;;;;;-2.94;100.00;101822.25;4896642;29;20040;-71
2022/01/22 05:15:06;;;;;;;71.13;29.27;;;;;;;-2.91;100.00;101817.41;4896843;29;20056;-72
2022/01/22 05:17:39;;;;;;;73.82;28.13;;;;;;;-2.87;100.00;101820.59;4911155;29;20052;-71
2022/01/22 05:20:29;;;;;;;78.60;30.23;;;;;;;-2.87;100.00;101821.44;4912485;29;20400;-72
2022/01/22 05:23:07;;;;;;;77.95;28.67;;;;;;;-2.84;100.00;101817.59;4896500;29;20087;-72
2022/01/22 05:25:41;;;;;;;81.25;32.35;;;;;;;-2.73;100.00;101809.25;4896746;29;20377;-72
2022/01/22 05:31:55;;;;;;;81.13;32.08;;;;;;;-2.59;100.00;101817.72;4905615;29;20639;-72
2022/01/22 05:39:28;;;;;;;101.75;34.63;;;;;;;-2.46;100.00;101831.50;4896091;29;20064;-72
2022/01/22 05:41:58;;;;;;;92.47;36.28;;;;;;;-2.40;100.00;101819.28;4893382;29;20415;-72
2022/01/22 05:44:27;;;;;;;91.00;34.65;;;;;;;-2.37;100.00;101821.63;4896964;29;20067;-72
2022/01/22 05:46:58;;;;;;;90.93;34.83;;;;;;;-2.35;100.00;101824.16;4911800;29;20059;-72
2022/01/22 05:49:31;;;;;;;93.25;33.47;;;;;;;-2.31;100.00;101820.13;4896357;29;20056;-72
2022/01/22 05:52:02;;;;;;;98.53;36.60;;;;;;;-2.19;100.00;101821.50;4896365;29;20044;-72
2022/01/22 05:59:48;;;;;;;99.32;35.90;;;;;;;-1.96;100.00;101812.84;4908810;29;20060;-71
2022/01/22 06:02:19;;;;;;;81.88;35.55;;;;;;;-2.00;100.00;101814.19;4894729;29;20057;-73
2022/01/22 06:04:52;;;;;;;82.67;32.87;;;;;;;-2.00;100.00;101808.81;4894618;29;20056;-73
2022/01/22 06:07:25;;;;;;;82.55;31.70;;;;;;;-2.08;100.00;101809.66;4897321;29;20300;-73
2022/01/22 06:10:15;;;;;;;96.47;34.72;;;;;;;-2.03;100.00;101809.13;4895389;29;20056;-73
2022/01/22 06:13:43;;;;;;;89.55;34.42;;;;;;;-1.95;100.00;101806.47;4897302;29;20056;-73
2022/01/22 06:15:33;;;;;;;102.88;36.00;;;;;;;-1.94;100.00;101796.56;4889495;29;20381;-73
2022/01/22 06:18:20;;;;;;;82.68;32.70;;;;;;;-1.93;100.00;101798.25;4896461;29;20072;-73
2022/01/22 06:20:51;;;;;;;89.28;34.00;;;;;;;-1.97;100.00;101792.38;4895964;29;20048;-71
2022/01/22 06:23:19;;;;;;;96.00;36.45;;;;;;;-2.02;100.00;101783.97;4910849;29;20057;-71
2022/01/22 06:25:48;;;;;;;98.72;35.65;;;;;;;-2.01;100.00;101784.84;4893081;29;20060;-71
2022/01/22 06:28:16;;;;;;;85.25;34.08;;;;;;;-1.99;100.00;101785.50;4911617;29;20078;-70
2022/01/22 06:30:46;;;;;;;89.15;33.65;;;;;;;-2.00;100.00;101770.41;4910321;29;20049;-71
2022/01/22 06:33:16;;;;;;;91.13;34.28;;;;;;;-2.02;100.00;101770.56;4903450;29;20055;-71
2022/01/22 06:35:44;;;;;;;95.80;35.35;;;;;;;-1.92;100.00;101767.72;4897670;29;20060;-72
2022/01/22 06:38:13;;;;;;;86.25;33.20;;;;;;;-1.97;100.00;101778.13;4896032;29;20065;-71
2022/01/22 06:44:01;;;;;;;92.10;33.25;;;;;;;-2.09;100.00;101772.25;4898573;29;20524;-73
2022/01/22 06:46:40;;;;;;;76.65;32.67;;;;;;;-2.03;100.00;101779.63;4897400;29;20424;-72
2022/01/22 06:49:27;;;;;;;72.40;29.67;;;;;;;-2.06;100.00;101778.13;4898245;29;20060;-73
2022/01/22 06:52:19;;;;;;;76.30;31.42;;;;;;;-2.03;100.00;101787.69;4898574;29;20060;-72
2022/01/22 06:54:50;;;;;;;74.88;30.17;;;;;;;-2.08;100.00;101790.00;4878766;29;20044;-72
2022/01/22 06:57:19;;;;;;;87.38;32.78;;;;;;;-2.01;100.00;101804.44;4913831;29;20044;-72
2022/01/22 06:59:48;;;;;;;75.85;32.13;;;;;;;-2.03;100.00;101798.41;4893770;29;20791;-73
2022/01/22 07:02:18;;;;;;;87.53;31.63;;;;;;;-2.06;100.00;101804.94;4893238;29;20060;-71
2022/01/22 07:04:47;;;;;;;73.28;29.77;;;;;;;-2.09;100.00;101809.81;4908422;29;20415;-72
2022/01/22 07:07:35;;;;;;;83.93;32.78;;;;;;;-2.04;100.00;101807.47;4899163;29;20052;-73
2022/01/22 07:10:04;;;;;;;78.38;30.88;;;;;;;-2.25;100.00;101806.06;4907502;29;20057;-72
2022/01/22 07:12:35;;;;;;;73.03;29.70;;;;;;;-2.24;100.00;101797.03;4896342;29;20045;-72
2022/01/22 07:15:04;;;;;;;77.78;31.60;;;;;;;-2.19;100.00;101793.88;4898402;29;20045;-71
2022/01/22 07:17:36;;;;;;;80.88;31.45;;;;;;;-2.07;100.00;101799.75;4898701;29;20044;-72
2022/01/22 07:20:14;;;;;;;76.45;30.30;;;;;;;-1.95;100.00;101793.03;4905548;29;20044;-72
2022/01/22 07:23:02;;;;;;;77.57;30.80;;;;;;;-1.67;100.00;101789.22;4891642;29;20057;-72
2022/01/22 07:25:33;;;;;;;70.25;30.58;;;;;;;-1.46;100.00;101786.00;4894714;29;20416;-75
2022/01/22 07:28:15;;;;;;;69.18;27.95;;;;;;;-1.43;100.00;101782.97;4893293;29;20147;-74
2022/01/22 07:30:46;;;;;;;66.95;27.80;;;;;;;-1.36;100.00;101783.97;4913115;29;20056;-75
2022/01/22 07:33:15;;;;;;;63.13;29.42;;;;;;;-1.29;100.00;101778.75;4898005;29;20048;-72
2022/01/22 07:35:46;;;;;;;72.10;28.45;;;;;;;-1.05;100.00;101774.31;4891055;29;20044;-76
2022/01/22 07:38:14;;;;;;;63.40;27.10;;;;;;;-1.06;100.00;101777.19;4894861;29;20052;-72
2022/01/22 07:40:42;;;;;;;58.80;26.90;;;;;;;-0.93;100.00;101785.53;4914457;29;20700;-74
2022/01/22 07:43:18;;;;;;;68.13;27.23;;;;;;;-0.83;100.00;101783.47;4896043;29;20504;-74
2022/01/22 07:46:06;;;;;;;56.88;23.00;;;;;;;-0.67;100.00;101787.13;4899005;29;20056;-76
2022/01/22 07:48:40;;;;;;;58.20;24.63;;;;;;;-0.58;100.00;101774.47;4895898;29;20048;-75
2022/01/22 07:51:12;;;;;;;59.22;24.95;;;;;;;-0.35;100.00;101765.63;4911362;29;20053;-74
2022/01/22 07:53:44;;;;;;;58.28;22.40;;;;;;;-0.32;100.00;101766.09;4893653;29;20515;-74
2022/01/22 07:56:19;;;;;;;56.28;24.05;;;;;;;-0.08;99.29;101758.03;4911072;29;20640;-77
2022/01/22 07:58:47;;;;;;;44.55;20.73;;;;;;;0.08;97.87;101763.28;4897606;29;20060;-77
2022/01/22 08:01:16;;;;;;;46.85;19.55;;;;;;;0.46;96.85;101764.31;4897798;29;20056;-77
2022/01/22 08:04:13;;;;;;;43.00;19.45;;;;;;;0.57;95.79;101749.53;4876967;29;20049;-75
2022/01/22 08:07:04;;;;;;;45.38;19.95;;;;;;;0.83;94.05;101732.13;4905853;29;20112;-73
2022/01/22 08:09:50;;;;;;;41.47;18.45;;;;;;;0.92;92.99;101730.97;4898053;29;20049;-73
2022/01/22 08:12:24;;;;;;;43.55;17.77;;;;;;;1.11;92.16;101731.44;4897271;29;20532;-73
2022/01/22 08:14:56;;;;;;;48.08;19.52;;;;;;;1.22;91.81;101730.94;4906712;29;20045;-74
2022/01/22 08:17:25;;;;;;;44.92;18.27;;;;;;;1.42;90.43;101730.38;4897430;29;20071;-74
2022/01/22 08:19:53;;;;;;;40.20;18.27;;;;;;;1.41;91.05;101723.31;4893563;29;20064;-73
2022/01/22 08:22:45;;;;;;;38.70;18.65;;;;;;;1.45;89.90;101719.19;4895623;29;20063;-74
2022/01/22 08:25:47;;;;;;;44.42;19.23;;;;;;;1.28;89.89;101718.56;4893960;29;20052;-73
2022/01/22 08:31:37;;;;;;;37.28;17.30;;;;;;;1.73;88.00;101735.47;4910878;29;20036;-74
2022/01/22 08:36:55;;;;;;;39.65;19.27;;;;;;;2.22;85.88;101751.06;4912553;29;20526;-74
2022/01/22 08:39:25;;;;;;;39.95;18.05;;;;;;;1.91;87.41;101730.66;4913375;29;20056;-74
2022/01/22 08:41:56;;;;;;;43.65;19.73;;;;;;;1.91;86.64;101739.56;4890102;29;20041;-74
2022/01/22 08:44:25;;;;;;;40.90;19.00;;;;;;;2.26;87.55;101742.38;4896958;29;20439;-73
2022/01/22 08:46:54;;;;;;;40.53;19.30;;;;;;;2.49;86.68;101732.38;4888794;29;20045;-74
2022/01/22 08:49:23;;;;;;;47.80;19.77;;;;;;;2.36;85.35;101742.06;4912293;29;20052;-74
2022/01/22 08:52:09;;;;;;;40.33;18.63;;;;;;;2.48;85.77;101742.34;4898225;29;20060;-74
2022/01/22 08:54:39;;;;;;;39.22;19.25;;;;;;;3.04;83.34;101737.06;4887207;29;20060;-74
2022/01/22 08:57:08;;;;;;;42.70;21.15;;;;;;;3.07;82.64;101728.53;4896674;29;20052;-74
2022/01/22 08:59:46;;;;;;;39.47;20.10;;;;;;;3.35;81.19;101733.00;4912764;29;20049;-74
2022/01/22 09:02:15;;;;;;;49.22;19.23;;;;;;;3.13;80.38;101727.72;4896799;29;20495;-74
2022/01/22 09:04:54;;;;;;;42.45;19.20;;;;;;;3.08;81.46;101727.50;4896274;29;20072;-73
2022/01/22 09:07:54;;;;;;;41.47;19.05;;;;;;;3.07;82.31;101729.38;4893584;29;20052;-75
2022/01/22 09:10:54;;;;;;;42.95;19.15;;;;;;;3.24;81.85;101729.03;4896956;29;20504;-73
2022/01/22 09:13:27;;;;;;;;;;;;;;;3.51;79.06;101734.50;4897237;29;20138;-74
2022/01/22 09:16:06;;;;;;;37.85;17.55;;;;;;;3.45;79.47;101729.91;4896811;29;19927;-75
2022/01/22 09:18:34;;;;;;;39.67;17.45;;;;;;;3.67;79.62;101730.59;4896925;29;20411;-75
2022/01/22 09:21:04;;;;;;;37.42;16.98;;;;;;;3.99;79.22;101730.88;4897493;29;20384;-75
2022/01/22 09:23:37;;;;;;;35.00;17.60;;;;;;;4.10;77.39;101731.28;4898127;29;20056;-75
2022/01/22 09:26:11;;;;;;;40.92;18.15;;;;;;;4.09;77.72;101716.06;4897943;29;20052;-75
2022/01/22 09:28:39;;;;;;;43.05;17.80;;;;;;;4.21;77.72;101729.81;4912564;29;20075;-74
2022/01/22 09:31:07;;;;;;;35.60;17.85;;;;;;;4.65;76.06;101724.78;4897597;29;20053;-74
2022/01/22 09:33:35;;;;;;;39.80;18.85;;;;;;;4.51;75.58;101721.25;4897737;29;20507;-74
2022/01/22 09:36:30;;;;;;;39.05;18.25;;;;;;;4.25;77.35;101715.63;4897685;29;20048;-74
2022/01/22 09:38:58;;;;;;;38.72;17.90;;;;;;;4.37;76.67;101713.16;4897793;29;20488;-74
2022/01/22 09:41:49;;;;;;;41.58;19.25;;;;;;;4.63;75.40;101716.00;4896466;29;20075;-74
2022/01/22 09:44:42;;;;;;;42.17;18.95;;;;;;;4.80;75.35;101716.41;4896949;29;20041;-74
2022/01/22 09:47:29;;;;;;;44.33;19.35;;;;;;;5.29;74.06;101705.16;4897685;29;20373;-74
2022/01/22 09:50:30;;;;;;;41.50;18.55;;;;;;;5.40;72.52;101714.47;4884588;29;20064;-75
2022/01/22 09:53:23;;;;;;;42.92;19.10;;;;;;;5.47;71.78;101709.88;4886421;29;20060;-75
2022/01/22 09:56:28;;;;;;;51.47;19.58;;;;;;;5.24;72.15;101719.38;4913826;29;20056;-75
2022/01/22 09:59:14;;;;;;;45.38;20.00;;;;;;;5.10;71.66;101724.84;4878988;29;20044;-74
2022/01/22 10:02:13;;;;;;;41.50;17.90;;;;;;;5.37;72.34;101727.44;4894159;29;20534;-73
2022/01/22 10:04:45;;;;;;;42.78;19.05;;;;;;;5.34;71.42;101730.56;4889626;29;20052;-73
2022/01/22 10:07:26;;;;;;;45.70;19.67;;;;;;;5.49;71.57;101733.00;4896664;29;20496;-75
2022/01/22 10:10:07;;;;;;;37.90;18.58;;;;;;;5.33;71.92;101726.19;4897075;29;20052;-73
2022/01/22 10:12:44;;;;;;;49.97;20.70;;;;;;;5.75;70.71;101733.06;4910603;29;20049;-73
2022/01/22 10:15:35;;;;;;;43.45;18.83;;;;;;;5.59;69.71;101737.16;4896318;29;20491;-72
2022/01/22 10:18:18;;;;;;;45.33;18.45;;;;;;;5.65;69.85;101718.09;4896196;29;20052;-73
2022/01/22 10:20:47;;;;;;;44.60;18.77;;;;;;;5.55;70.13;101728.59;4895520;29;20064;-73
2022/01/22 10:23:26;;;;;;;39.78;18.30;;;;;;;5.40;72.21;101714.47;4897379;29;20060;-74
2022/01/22 10:26:02;;;;;;;49.13;19.27;;;;;;;5.68;71.64;101716.84;4889950;29;20068;-73
2022/01/22 10:28:39;;;;;;;45.90;19.55;;;;;;;5.74;70.35;101715.13;4888948;29;20169;-75
2022/01/22 10:31:10;;;;;;;44.17;18.45;;;;;;;5.82;71.00;101727.59;4896444;29;20044;-74
2022/01/22 10:34:18;;;;;;;39.13;17.23;;;;;;;5.72;69.18;101737.06;4896320;29;20056;-74
2022/01/22 10:37:06;;;;;;;47.27;19.60;;;;;;;5.23;70.26;101725.84;4896879;29;20048;-73
2022/01/22 10:39:46;;;;;;;52.38;19.95;;;;;;;5.63;70.44;101716.66;4895635;29;20664;-73
2022/01/22 10:42:26;;;;;;;49.90;20.05;;;;;;;5.69;68.44;101695.94;4896658;29;20470;-74
2022/01/22 10:45:00;;;;;;;43.67;17.65;;;;;;;6.24;66.90;101708.06;4896654;29;20068;-74
2022/01/22 10:47:29;;;;;;;38.97;16.52;;;;;;;6.39;64.07;101705.00;4896917;29;20052;-74
2022/01/22 10:50:16;;;;;;;40.67;16.73;;;;;;;5.97;64.68;101714.53;4910400;29;20540;-74
2022/01/22 10:52:52;;;;;;;37.75;16.10;;;;;;;6.16;64.60;101718.16;4896474;29;20055;-73
2022/01/22 10:55:20;;;;;;;36.90;14.48;;;;;;;6.55;60.98;101715.31;4896095;29;20069;-74
2022/01/22 10:58:19;;;;;;;34.88;15.05;;;;;;;6.71;59.42;101700.28;4896663;29;20052;-74
2022/01/22 11:00:59;;;;;;;35.90;15.23;;;;;;;6.93;60.52;101702.56;4886931;29;20423;-73
2022/01/22 11:03:28;;;;;;;33.25;14.38;;;;;;;6.31;60.54;101693.38;4884297;29;20053;-73
2022/01/22 11:05:58;;;;;;;36.97;15.88;;;;;;;6.08;61.44;101685.84;4888390;29;20395;-72
2022/01/22 11:08:29;;;;;;;30.60;14.00;;;;;;;6.32;60.67;101678.72;4887699;29;20045;-73
2022/01/22 11:10:57;;;;;;;36.28;14.90;;;;;;;6.20;60.01;101679.69;4878989;29;20056;-73
2022/01/22 11:13:25;;;;;;;36.35;14.50;;;;;;;6.35;60.84;101666.56;4891223;29;20045;-73
2022/01/22 11:15:54;;;;;;;40.08;16.40;;;;;;;6.30;61.27;101675.41;4891705;29;20044;-73
2022/01/22 11:18:23;;;;;;;35.95;15.55;;;;;;;6.09;62.61;101673.91;4886890;29;20049;-73
2022/01/22 11:20:52;;;;;;;47.22;17.90;;;;;;;6.32;61.33;101688.78;4884740;29;20048;-74
2022/01/22 11:23:22;;;;;;;38.25;15.90;;;;;;;6.31;60.81;101692.56;4891644;29;20053;-75
2022/01/22 11:25:51;;;;;;;37.60;17.05;;;;;;;6.69;60.66;101686.09;4892928;29;20444;-73
2022/01/22 11:28:20;;;;;;;39.63;17.17;;;;;;;6.13;61.38;101671.56;4898315;29;20060;-74
2022/01/22 11:30:49;;;;;;;38.33;17.33;;;;;;;6.04;61.63;101663.72;4898654;29;20064;-73
2022/01/22 11:33:21;;;;;;;44.70;16.50;;;;;;;5.83;62.17;101654.03;4912081;29;20048;-73
2022/01/22 11:35:54;;;;;;;39.50;15.82;;;;;;;6.18;62.36;101656.28;4897125;29;20407;-74
2022/01/22 11:38:33;;;;;;;40.33;17.55;;;;;;;6.08;61.54;101655.09;4898968;29;20040;-73
2022/01/22 11:41:10;;;;;;;43.25;17.02;;;;;;;6.04;61.46;101655.56;4898993;29;20495;-74
2022/01/22 11:47:07;;;;;;;37.05;14.65;;;;;;;6.19;59.78;101657.09;4901325;29;20052;-75
2022/01/22 11:49:38;;;;;;;38.60;16.10;;;;;;;6.63;59.50;101656.22;4897860;29;20051;-73
2022/01/22 11:52:12;;;;;;;39.80;16.70;;;;;;;6.57;58.36;101657.97;4899524;29;20064;-74
2022/01/22 11:55:07;;;;;;;38.25;17.23;;;;;;;6.95;58.68;101647.91;4898110;29;20500;-73
2022/01/22 11:57:36;;;;;;;36.63;15.48;;;;;;;6.52;56.53;101641.50;4899267;29;20063;-74
2022/01/22 12:00:28;;;;;;;37.20;18.10;;;;;;;6.70;56.95;101630.59;4899535;29;20055;-75
2022/01/22 12:03:08;;;;;;;40.17;17.20;;;;;;;6.72;57.96;101624.94;4898442;29;20492;-74
2022/01/22 12:06:01;;;;;;;40.47;16.75;;;;;;;6.66;57.77;101607.66;4897946;29;20385;-75
2022/01/22 12:08:29;;;;;;;39.47;18.52;;;;;;;6.65;58.71;101619.56;4897913;29;20060;-74
2022/01/22 12:16:48;;;;;;;40.88;17.27;;;;;;;6.22;60.96;101607.72;4898245;29;19927;-75
2022/01/22 12:20:04;;;;;;;37.92;17.38;;;;;;;6.26;62.14;101602.69;4897311;29;20079;-74
2022/01/22 12:22:35;;;;;;;48.38;20.95;;;;;;;6.30;63.71;101604.72;4899018;29;20056;-75
2022/01/22 12:25:23;;;;;;;42.08;18.65;;;;;;;6.11;64.49;101600.31;4898850;29;20055;-75
2022/01/22 12:27:55;;;;;;;46.38;18.85;;;;;;;5.88;64.89;101588.16;4898446;29;20049;-73
2022/01/22 12:30:33;;;;;;;44.72;20.77;;;;;;;6.05;64.99;101593.88;4898844;29;20068;-74
2022/01/22 12:33:02;;;;;;;43.28;19.42;;;;;;;5.95;65.33;101588.13;4898616;29;20048;-74
2022/01/22 12:35:37;;;;;;;52.33;21.42;;;;;;;5.99;65.33;101597.47;4898445;29;20056;-74
2022/01/22 12:38:24;;;;;;;51.22;21.50;;;;;;;5.98;65.13;101591.22;4896974;29;20086;-76
2022/01/22 12:40:58;;;;;;;43.85;18.52;;;;;;;6.01;65.20;101573.63;4898316;29;20056;-74
2022/01/22 12:43:33;;;;;;;45.92;20.17;;;;;;;6.08;64.81;101585.28;4894919;29;20044;-74
2022/01/22 12:46:03;;;;;;;50.60;20.85;;;;;;;6.16;66.25;101581.44;4898364;29;20508;-75
2022/01/22 12:48:35;;;;;;;52.33;20.60;;;;;;;6.06;66.45;101571.06;4898782;29;20056;-75
2022/01/22 12:51:08;;;;;;;43.67;20.88;;;;;;;6.25;66.92;101579.28;4893919;29;20057;-73
2022/01/22 12:53:48;;;;;;;49.35;20.98;;;;;;;6.31;65.82;101562.06;4889750;29;20049;-73
2022/01/22 12:59:06;;;;;;;53.15;22.40;;;;;;;6.54;65.54;101564.06;4887520;29;20056;-73
2022/01/22 13:01:44;;;;;;;49.70;22.38;;;;;;;6.50;66.04;101562.03;4887705;29;20053;-71
2022/01/22 13:04:21;;;;;;;55.17;21.10;;;;;;;6.33;65.45;101554.50;4886270;29;20060;-73
2022/01/22 13:07:12;;;;;;;;;;;;;;;6.35;65.73;101560.53;4886698;29;20060;-72
2022/01/22 13:10:06;;;;;;;54.45;21.15;;;;;;;6.56;65.45;101569.28;4888175;29;19939;-73
2022/01/22 13:12:36;;;;;;;44.95;18.40;;;;;;;6.45;64.74;101554.53;4889563;29;20067;-73
2022/01/22 13:15:05;;;;;;;53.90;20.05;;;;;;;6.66;64.88;101569.56;4892861;29;20064;-72
2022/01/22 13:17:34;;;;;;;43.03;19.63;;;;;;;6.77;63.25;101573.41;4889192;29;20040;-72
2022/01/22 13:20:10;;;;;;;44.25;18.60;;;;;;;6.64;62.75;101560.78;4890673;29;20057;-72
2022/01/22 13:22:39;;;;;;;37.65;17.55;;;;;;;6.81;61.11;101557.44;4892032;29;20059;-74
2022/01/22 13:25:11;;;;;;;37.28;17.45;;;;;;;6.57;62.12;101551.91;4885505;29;20064;-74
2022/01/22 13:27:42;;;;;;;35.45;16.77;;;;;;;6.63;62.10;101558.28;4892322;29;20080;-74